Time;durP1;ratioP1;P1;durP2;ratioP2;P2;SDS_P1;SDS_P2;PMS_P1;PMS_P2;Temp;Humidity;BMP_temperature;BMP_pressure;BME280_temperature;BME280_humidity;BME280_pressure;Samples;Min_cycle;Max_cycle;Signal;HPM_P1;HPM_P2
2022/02/18 00:03:17;;;;;;;;;;;18.00;38.30;;;;;;8329705;28;19933;-51
2022/02/18 00:07:17;;;;;;;;;;;18.00;38.30;;;;;;8329369;28;20000;-52
2022/02/18 00:11:18;;;;;;;;;;;18.00;38.30;;;;;;8329315;28;19921;-53
2022/02/18 00:15:18;;;;;;;;;;;18.00;38.30;;;;;;8329417;28;20286;-50
2022/02/18 00:19:19;;;;;;;;;;;18.00;38.30;;;;;;8329351;28;20007;-52
2022/02/18 00:23:19;;;;;;;;;;;18.00;38.30;;;;;;8329482;28;19925;-50
2022/02/18 00:27:20;;;;;;;;;;;17.90;38.30;;;;;;8329622;28;19918;-50
2022/02/18 00:31:20;;;;;;;;;;;18.00;38.30;;;;;;8328928;28;19917;-54
2022/02/18 00:35:22;;;;;;;;;;;17.90;38.30;;;;;;8333820;28;19964;-54
2022/02/18 00:39:22;;;;;;;;;;;18.00;38.30;;;;;;8335741;28;20289;-51
2022/02/18 00:43:22;;;;;;;;;;;17.90;38.20;;;;;;8334548;28;19932;-53
2022/02/18 00:47:23;;;;;;;;;;;17.90;38.30;;;;;;8335090;28;19924;-50
2022/02/18 00:51:23;;;;;;;;;;;17.90;38.20;;;;;;8334717;28;19964;-52
2022/02/18 00:55:24;;;;;;;;;;;17.90;38.20;;;;;;8334427;28;19936;-54
2022/02/18 00:59:24;;;;;;;;;;;17.90;38.20;;;;;;8334843;28;20366;-54
2022/02/18 01:03:25;;;;;;;;;;;17.90;38.30;;;;;;8334427;28;20386;-52
2022/02/18 01:07:26;;;;;;;;;;;17.90;38.30;;;;;;8334084;28;19917;-54
2022/02/18 01:11:26;;;;;;;;;;;17.90;38.30;;;;;;8334196;28;20379;-53
2022/02/18 01:15:27;;;;;;;;;;;17.90;38.30;;;;;;8334273;28;20259;-52
2022/02/18 01:19:27;;;;;;;;;;;17.90;38.30;;;;;;8333891;28;20435;-54
2022/02/18 01:23:28;;;;;;;;;;;17.90;38.30;;;;;;8334013;28;19936;-51
2022/02/18 01:27:28;;;;;;;;;;;17.90;38.30;;;;;;8333984;28;19967;-52
2022/02/18 01:31:29;;;;;;;;;;;17.90;38.30;;;;;;8333321;28;19925;-51
2022/02/18 01:35:29;;;;;;;;;;;17.90;38.30;;;;;;8333641;28;19924;-54
2022/02/18 01:39:30;;;;;;;;;;;17.90;38.30;;;;;;8333774;28;19917;-51
2022/02/18 01:43:31;;;;;;;;;;;17.90;38.30;;;;;;8332780;28;19932;-55
2022/02/18 01:47:31;;;;;;;;;;;17.90;38.30;;;;;;8332876;28;19917;-54
2022/02/18 01:51:32;;;;;;;;;;;17.90;38.30;;;;;;8332937;28;20336;-53
2022/02/18 01:55:32;;;;;;;;;;;17.90;38.30;;;;;;8332352;28;19928;-51
2022/02/18 01:59:33;;;;;;;;;;;17.90;38.30;;;;;;8333195;28;19918;-55
2022/02/18 02:03:33;;;;;;;;;;;17.90;38.30;;;;;;8331782;28;19929;-55
2022/02/18 02:07:34;;;;;;;;;;;17.90;38.30;;;;;;8332056;28;19920;-53
2022/02/18 02:11:35;;;;;;;;;;;17.80;38.20;;;;;;8332370;28;19923;-55
2022/02/18 02:15:36;;;;;;;;;;;17.90;38.30;;;;;;8332430;28;19924;-55
2022/02/18 02:19:37;;;;;;;;;;;17.80;38.20;;;;;;8331579;28;20400;-52
2022/02/18 02:23:37;;;;;;;;;;;17.80;38.20;;;;;;8332194;28;19994;-55
2022/02/18 02:27:39;;;;;;;;;;;17.80;38.20;;;;;;8332051;28;19921;-55
2022/02/18 02:31:40;;;;;;;;;;;17.80;38.20;;;;;;8331588;28;19921;-53
2022/02/18 02:35:40;;;;;;;;;;;17.80;38.20;;;;;;8332169;28;19923;-53
2022/02/18 02:39:41;;;;;;;;;;;17.80;38.20;;;;;;8331694;28;19917;-53
2022/02/18 02:43:41;;;;;;;;;;;17.80;38.20;;;;;;8330777;28;19925;-54
2022/02/18 02:47:43;;;;;;;;;;;17.80;38.20;;;;;;8331564;28;20011;-51
2022/02/18 02:51:44;;;;;;;;;;;17.80;38.20;;;;;;8331075;28;19917;-52
2022/02/18 02:55:44;;;;;;;;;;;17.80;38.20;;;;;;8330766;28;19921;-54
2022/02/18 02:59:45;;;;;;;;;;;17.80;38.30;;;;;;8331060;28;19917;-53
2022/02/18 03:03:45;;;;;;;;;;;17.80;38.20;;;;;;8330676;28;19971;-54
2022/02/18 03:07:46;;;;;;;;;;;17.80;38.20;;;;;;8330366;28;20400;-51
2022/02/18 03:11:46;;;;;;;;;;;17.80;38.20;;;;;;8330993;28;19917;-54
2022/02/18 03:15:47;;;;;;;;;;;17.80;38.20;;;;;;8330885;28;19917;-53
2022/02/18 03:19:47;;;;;;;;;;;17.80;38.30;;;;;;8330325;28;19917;-54
2022/02/18 03:23:48;;;;;;;;;;;17.80;38.30;;;;;;8330223;28;19929;-55
2022/02/18 03:27:48;;;;;;;;;;;17.80;38.30;;;;;;8330645;28;19921;-53
2022/02/18 03:31:49;;;;;;;;;;;17.80;38.30;;;;;;8329745;28;19921;-54
2022/02/18 03:35:49;;;;;;;;;;;17.80;38.30;;;;;;8330700;28;19975;-53
2022/02/18 03:39:50;;;;;;;;;;;17.70;38.20;;;;;;8330096;28;19917;-51
2022/02/18 03:43:50;;;;;;;;;;;17.70;38.20;;;;;;8329668;28;20008;-52
2022/02/18 03:47:51;;;;;;;;;;;17.70;38.20;;;;;;8330090;28;19940;-53
2022/02/18 03:51:51;;;;;;;;;;;17.70;38.20;;;;;;8329822;28;20429;-50
2022/02/18 03:55:52;;;;;;;;;;;17.70;38.20;;;;;;8329676;28;20293;-54
2022/02/18 03:59:52;;;;;;;;;;;17.70;38.20;;;;;;8329889;28;19917;-54
2022/02/18 04:03:53;;;;;;;;;;;17.70;38.20;;;;;;8329728;28;20340;-52
2022/02/18 04:07:54;;;;;;;;;;;17.70;38.20;;;;;;8330006;28;19923;-52
2022/02/18 04:11:54;;;;;;;;;;;17.70;38.20;;;;;;8336370;28;20294;-54
2022/02/18 04:15:55;;;;;;;;;;;17.70;38.30;;;;;;8336327;28;19917;-54
2022/02/18 04:19:55;;;;;;;;;;;17.70;38.20;;;;;;8335290;28;19967;-53
2022/02/18 04:23:56;;;;;;;;;;;17.70;38.30;;;;;;8336120;28;19925;-52
2022/02/18 04:27:58;;;;;;;;;;;17.70;38.30;;;;;;8335814;28;19925;-52
2022/02/18 04:31:58;;;;;;;;;;;17.60;38.20;;;;;;8335175;28;19975;-54
2022/02/18 04:36:00;;;;;;;;;;;17.60;38.20;;;;;;8335611;28;20447;-55
2022/02/18 04:40:00;;;;;;;;;;;17.70;38.30;;;;;;8335274;28;19917;-50
2022/02/18 04:44:01;;;;;;;;;;;17.70;38.30;;;;;;8334497;28;20325;-52
2022/02/18 04:48:02;;;;;;;;;;;17.70;38.30;;;;;;8335063;28;19917;-51
2022/02/18 04:52:03;;;;;;;;;;;17.60;38.20;;;;;;8335237;28;20380;-55
2022/02/18 04:56:04;;;;;;;;;;;17.70;38.30;;;;;;8334857;28;19948;-54
2022/02/18 05:00:05;;;;;;;;;;;17.60;38.20;;;;;;8334581;28;19917;-54
2022/02/18 05:04:06;;;;;;;;;;;17.70;38.20;;;;;;8334501;28;19925;-50
2022/02/18 05:08:06;;;;;;;;;;;17.70;38.20;;;;;;8333228;28;20444;-55
2022/02/18 05:12:07;;;;;;;;;;;17.60;38.20;;;;;;8334238;28;20430;-53
2022/02/18 05:16:07;;;;;;;;;;;17.60;38.20;;;;;;8334231;28;19918;-52
2022/02/18 05:20:08;;;;;;;;;;;17.70;38.20;;;;;;8332318;28;19939;-54
2022/02/18 05:24:09;;;;;;;;;;;17.70;38.20;;;;;;8334158;28;19936;-51
2022/02/18 05:28:09;;;;;;;;;;;17.60;38.20;;;;;;8333916;28;19918;-53
2022/02/18 05:32:10;;;;;;;;;;;17.60;38.20;;;;;;8333192;28;20286;-51
2022/02/18 05:36:10;;;;;;;;;;;17.70;38.20;;;;;;8333681;28;19917;-52
2022/02/18 05:40:11;;;;;;;;;;;17.60;38.20;;;;;;8333369;28;19917;-53
2022/02/18 05:44:11;;;;;;;;;;;17.60;38.20;;;;;;8332784;28;20386;-51
2022/02/18 05:48:11;;;;;;;;;;;17.70;38.30;;;;;;8333203;28;19918;-54
2022/02/18 05:52:12;;;;;;;;;;;17.70;38.20;;;;;;8332899;28;20337;-53
2022/02/18 05:56:12;;;;;;;;;;;17.60;38.20;;;;;;8332678;28;20011;-50
2022/02/18 06:00:13;;;;;;;;;;;17.60;38.20;;;;;;8332673;28;20480;-54
2022/02/18 06:04:14;;;;;;;;;;;17.60;38.20;;;;;;8331226;28;20447;-54
2022/02/18 06:08:15;;;;;;;;;;;17.60;38.20;;;;;;8332123;28;19917;-53
2022/02/18 06:12:15;;;;;;;;;;;17.60;38.30;;;;;;8332672;28;19949;-51
2022/02/18 06:16:15;;;;;;;;;;;17.60;38.30;;;;;;8332512;28;19917;-54
2022/02/18 06:20:16;;;;;;;;;;;17.70;38.30;;;;;;8331940;28;20359;-53
2022/02/18 06:24:16;;;;;;;;;;;17.60;38.20;;;;;;8332139;28;20335;-54
2022/02/18 06:28:17;;;;;;;;;;;17.60;38.30;;;;;;8331420;28;19917;-50
2022/02/18 06:32:17;;;;;;;;;;;17.60;38.30;;;;;;8331735;28;20382;-53
2022/02/18 06:36:18;;;;;;;;;;;17.60;38.20;;;;;;8331673;28;19924;-53
2022/02/18 06:40:18;;;;;;;;;;;17.70;38.30;;;;;;8331126;28;19928;-54
2022/02/18 06:44:19;;;;;;;;;;;17.60;38.30;;;;;;8331445;28;20382;-53
2022/02/18 06:48:19;;;;;;;;;;;17.60;38.30;;;;;;8331347;28;19917;-54
2022/02/18 06:52:20;;;;;;;;;;;17.60;38.20;;;;;;8330955;28;20023;-55
2022/02/18 06:56:20;;;;;;;;;;;17.70;38.30;;;;;;8331005;28;19917;-53
2022/02/18 07:00:22;;;;;;;;;;;17.60;38.30;;;;;;8331150;28;20389;-55
2022/02/18 07:04:23;;;;;;;;;;;17.70;38.30;;;;;;8330394;28;19980;-52
2022/02/18 07:08:23;;;;;;;;;;;17.60;38.30;;;;;;8330798;28;19917;-55
2022/02/18 07:12:25;;;;;;;;;;;17.60;38.20;;;;;;8330822;28;20285;-54
2022/02/18 07:16:25;;;;;;;;;;;17.60;38.20;;;;;;8330187;28;19917;-53
2022/02/18 07:20:26;;;;;;;;;;;17.60;38.30;;;;;;8330706;28;20009;-55
2022/02/18 07:24:27;;;;;;;;;;;17.60;38.30;;;;;;8330466;28;19931;-53
2022/02/18 07:28:27;;;;;;;;;;;17.60;38.20;;;;;;8329910;28;19924;-55
2022/02/18 07:32:28;;;;;;;;;;;17.60;38.30;;;;;;8330460;28;19913;-52
2022/02/18 07:36:29;;;;;;;;;;;17.60;38.20;;;;;;8327334;28;20338;-54
2022/02/18 07:40:29;;;;;;;;;;;17.60;38.20;;;;;;8329090;28;20008;-55
2022/02/18 07:44:30;;;;;;;;;;;17.70;38.30;;;;;;8332973;28;19978;-51
2022/02/18 07:48:30;;;;;;;;;;;17.60;38.30;;;;;;8336730;28;19917;-50
2022/02/18 07:52:31;;;;;;;;;;;17.60;38.20;;;;;;8336603;28;20282;-52
2022/02/18 07:56:31;;;;;;;;;;;17.70;38.20;;;;;;8336671;28;19917;-52
2022/02/18 08:00:33;;;;;;;;;;;17.70;38.20;;;;;;8336413;28;19917;-50
2022/02/18 08:04:34;;;;;;;;;;;17.70;38.20;;;;;;8334493;28;19925;-50
2022/02/18 08:08:36;;;;;;;;;;;17.70;38.20;;;;;;8336265;28;19924;-51
2022/02/18 08:12:37;;;;;;;;;;;17.70;38.20;;;;;;8336486;28;19924;-50
2022/02/18 08:16:37;;;;;;;;;;;17.70;38.20;;;;;;8335527;28;19983;-52
2022/02/18 08:20:38;;;;;;;;;;;17.70;38.20;;;;;;8335969;28;19928;-52
2022/02/18 08:24:38;;;;;;;;;;;17.70;38.20;;;;;;8335662;28;19925;-52
2022/02/18 08:28:39;;;;;;;;;;;17.80;38.30;;;;;;8335161;28;19917;-50
2022/02/18 08:32:39;;;;;;;;;;;17.70;38.20;;;;;;8335960;28;19928;-54
2022/02/18 08:36:40;;;;;;;;;;;17.70;38.20;;;;;;8335439;28;20369;-51
2022/02/18 08:40:40;;;;;;;;;;;17.70;38.30;;;;;;8334572;28;19918;-50
2022/02/18 08:44:41;;;;;;;;;;;17.70;38.20;;;;;;8334986;28;20345;-53
2022/02/18 08:48:41;;;;;;;;;;;17.70;38.30;;;;;;8334958;28;20298;-52
2022/02/18 08:52:44;;;;;;;;;;;17.80;38.30;;;;;;8334575;28;19963;-52
2022/02/18 08:56:45;;;;;;;;;;;17.80;38.30;;;;;;8334380;28;19917;-53
2022/02/18 09:00:46;;;;;;;;;;;17.80;38.30;;;;;;8335092;28;19917;-53
2022/02/18 09:04:46;;;;;;;;;;;17.80;38.30;;;;;;8333119;28;19921;-53
2022/02/18 09:08:48;;;;;;;;;;;17.70;38.30;;;;;;8334457;28;19917;-53
2022/02/18 09:12:48;;;;;;;;;;;17.80;38.30;;;;;;8334743;28;19917;-51
2022/02/18 09:16:49;;;;;;;;;;;17.80;38.30;;;;;;8334068;28;20011;-53
2022/02/18 09:20:49;;;;;;;;;;;17.80;38.30;;;;;;8334350;28;19929;-53
2022/02/18 09:24:50;;;;;;;;;;;17.90;38.30;;;;;;8334003;28;20020;-53
2022/02/18 09:28:50;;;;;;;;;;;17.90;38.30;;;;;;8333432;28;19967;-52
2022/02/18 09:32:51;;;;;;;;;;;17.90;38.30;;;;;;8333821;28;19917;-53
2022/02/18 09:36:51;;;;;;;;;;;17.90;38.30;;;;;;8333372;28;19921;-52
2022/02/18 09:40:51;;;;;;;;;;;17.90;38.30;;;;;;8332937;28;19917;-51
2022/02/18 09:44:52;;;;;;;;;;;17.90;38.30;;;;;;8333228;28;19975;-51
2022/02/18 09:48:54;;;;;;;;;;;17.90;38.30;;;;;;8333019;28;19914;-52
2022/02/18 09:52:54;;;;;;;;;;;17.90;38.30;;;;;;8332833;28;19964;-52
2022/02/18 09:56:55;;;;;;;;;;;17.90;38.30;;;;;;8332866;28;20385;-54
2022/02/18 10:00:56;;;;;;;;;;;18.00;38.40;;;;;;8332884;28;19917;-53
2022/02/18 10:04:56;;;;;;;;;;;18.00;38.30;;;;;;8332390;28;19921;-54
2022/02/18 10:08:58;;;;;;;;;;;18.00;38.30;;;;;;8331961;28;20417;-50
2022/02/18 10:12:59;;;;;;;;;;;18.00;38.40;;;;;;8332688;28;19921;-54
2022/02/18 10:17:09;;;;;;;;;;;18.00;38.40;;;;;;8331534;28;19928;-54
2022/02/18 10:21:12;;;;;;;;;;;18.00;38.40;;;;;;8332289;28;20386;-51
2022/02/18 10:25:21;;;;;;;;;;;18.00;38.30;;;;;;8332223;28;20305;-54
2022/02/18 10:29:24;;;;;;;;;;;18.00;38.40;;;;;;8332139;28;19924;-53
2022/02/18 10:33:24;;;;;;;;;;;18.00;38.30;;;;;;8332083;28;20043;-54
2022/02/18 10:37:27;;;;;;;;;;;18.00;38.30;;;;;;8331155;28;19917;-49
2022/02/18 10:41:29;;;;;;;;;;;18.10;39.00;;;;;;8331425;28;19932;-53
2022/02/18 10:45:29;;;;;;;;;;;18.00;38.30;;;;;;8331573;28;20416;-50
2022/02/18 10:49:32;;;;;;;;;;;18.10;38.40;;;;;;8330778;28;19917;-50
2022/02/18 10:53:36;;;;;;;;;;;18.00;38.30;;;;;;8331341;28;19921;-51
2022/02/18 10:57:37;;;;;;;;;;;18.10;38.90;;;;;;8331314;28;19924;-51
2022/02/18 11:01:44;;;;;;;;;;;18.10;38.40;;;;;;8329604;28;20392;-53
2022/02/18 11:05:44;;;;;;;;;;;18.10;38.40;;;;;;8331020;28;19979;-52
2022/02/18 11:09:47;;;;;;;;;;;18.10;38.40;;;;;;8330635;28;19917;-50
2022/02/18 11:13:48;;;;;;;;;;;18.10;38.40;;;;;;8330383;28;20311;-49
2022/02/18 11:17:52;;;;;;;;;;;18.10;38.30;;;;;;8330463;28;19921;-53
2022/02/18 11:21:52;;;;;;;;;;;18.10;38.30;;;;;;8330484;28;19926;-49
2022/02/18 11:25:53;;;;;;;;;;;18.10;38.30;;;;;;8330007;28;19963;-52
2022/02/18 11:29:54;;;;;;;;;;;18.20;38.40;;;;;;8330456;28;19918;-52
2022/02/18 11:34:13;;;;;;;;;;;18.20;38.40;;;;;;8330363;28;20379;-53
2022/02/18 11:38:19;;;;;;;;;;;18.20;38.40;;;;;;8329652;28;19917;-50
2022/02/18 11:42:39;;;;;;;;;;;18.20;38.40;;;;;;8330056;28;20353;-52
2022/02/18 11:46:40;;;;;;;;;;;18.20;38.40;;;;;;8329669;28;19924;-51
2022/02/18 11:50:40;;;;;;;;;;;18.20;38.40;;;;;;8330355;28;19917;-50
2022/02/18 11:54:41;;;;;;;;;;;18.20;38.40;;;;;;8329927;28;19925;-53
2022/02/18 11:58:49;;;;;;;;;;;18.30;38.40;;;;;;8329572;28;20332;-53
2022/02/18 12:02:49;;;;;;;;;;;18.20;38.40;;;;;;8329733;28;20382;-53
2022/02/18 12:07:13;;;;;;;;;;;18.30;38.40;;;;;;8329899;28;19924;-53
2022/02/18 12:11:14;;;;;;;;;;;18.20;38.40;;;;;;8329537;28;20382;-51
2022/02/18 12:15:16;;;;;;;;;;;18.30;38.40;;;;;;8330460;28;19924;-51
2022/02/18 12:19:23;;;;;;;;;;;18.30;38.50;;;;;;8330849;28;20004;-49
2022/02/18 12:23:26;;;;;;;;;;;18.30;38.40;;;;;;8330241;28;19929;-52
2022/02/18 12:27:34;;;;;;;;;;;18.30;38.50;;;;;;8329392;28;19917;-52
2022/02/18 12:31:53;;;;;;;;;;;18.30;38.40;;;;;;8348267;28;20366;-49
2022/02/18 12:35:54;;;;;;;;;;;18.30;38.40;;;;;;8335350;28;19918;-50
2022/02/18 12:39:56;;;;;;;;;;;18.30;38.40;;;;;;8335397;28;20428;-51
2022/02/18 12:43:58;;;;;;;;;;;18.30;38.40;;;;;;8335010;28;19925;-52
2022/02/18 12:48:00;;;;;;;;;;;18.40;38.40;;;;;;8335170;28;19917;-50
2022/02/18 12:52:07;;;;;;;;;;;18.40;38.40;;;;;;8335137;28;19921;-51
2022/02/18 12:56:18;;;;;;;;;;;18.40;38.50;;;;;;8334417;28;20275;-54
2022/02/18 13:00:19;;;;;;;;;;;18.40;38.50;;;;;;8334925;28;20008;-52
2022/02/18 13:04:23;;;;;;;;;;;18.40;38.40;;;;;;8334287;28;19936;-53
2022/02/18 13:08:24;;;;;;;;;;;18.40;38.50;;;;;;8334335;28;19924;-51
2022/02/18 13:12:25;;;;;;;;;;;18.40;38.40;;;;;;8334570;28;20009;-53
2022/02/18 13:16:25;;;;;;;;;;;18.40;38.40;;;;;;8333709;28;20374;-53
2022/02/18 13:20:26;;;;;;;;;;;18.40;38.50;;;;;;8334318;28;19921;-53
2022/02/18 13:24:27;;;;;;;;;;;18.40;38.40;;;;;;8334101;28;20374;-53
2022/02/18 13:28:31;;;;;;;;;;;18.40;38.40;;;;;;8333466;28;19924;-50
2022/02/18 13:32:32;;;;;;;;;;;18.40;38.40;;;;;;8332502;28;19917;-51
2022/02/18 13:36:33;;;;;;;;;;;18.50;38.40;;;;;;8333547;28;19924;-50
2022/02/18 13:40:33;;;;;;;;;;;18.50;38.40;;;;;;8331814;28;20699;-51
2022/02/18 13:44:34;;;;;;;;;;;18.50;38.50;;;;;;8333505;28;19925;-52
2022/02/18 13:48:36;;;;;;;;;;;18.50;38.40;;;;;;8332683;28;19924;-55
2022/02/18 13:52:37;;;;;;;;;;;18.50;38.40;;;;;;8332911;28;19929;-49
2022/02/18 13:56:39;;;;;;;;;;;18.50;38.40;;;;;;8333022;28;19917;-54
2022/02/18 14:00:43;;;;;;;;;;;18.50;38.40;;;;;;8332838;28;19925;-51
2022/02/18 14:04:47;;;;;;;;;;;18.50;38.40;;;;;;8327996;28;19925;-53
2022/02/18 14:08:54;;;;;;;;;;;18.50;38.40;;;;;;8329838;28;19923;-53
2022/02/18 14:12:57;;;;;;;;;;;18.50;38.40;;;;;;8331349;28;22338;-53
2022/02/18 14:16:58;;;;;;;;;;;18.60;38.40;;;;;;8329521;28;20007;-49
2022/02/18 14:21:02;;;;;;;;;;;18.60;38.40;;;;;;8325224;28;20370;-50
2022/02/18 14:25:22;;;;;;;;;;;18.60;38.40;;;;;;8325241;28;19929;-49
2022/02/18 14:29:22;;;;;;;;;;;18.60;38.40;;;;;;8330587;28;20051;-51
2022/02/18 14:33:24;;;;;;;;;;;18.60;38.40;;;;;;8331421;28;19917;-51
2022/02/18 14:37:24;;;;;;;;;;;18.60;38.40;;;;;;8331232;28;19963;-52
2022/02/18 14:41:25;;;;;;;;;;;18.60;38.40;;;;;;8329738;28;19925;-52
2022/02/18 14:45:28;;;;;;;;;;;18.60;38.40;;;;;;8331408;28;19924;-53
2022/02/18 14:49:28;;;;;;;;;;;18.60;38.40;;;;;;8330182;28;19970;-53
2022/02/18 14:53:29;;;;;;;;;;;18.60;38.40;;;;;;8330065;28;19925;-51
2022/02/18 14:57:31;;;;;;;;;;;18.60;38.40;;;;;;8329897;28;20346;-54
2022/02/18 15:01:31;;;;;;;;;;;18.60;38.40;;;;;;8330508;28;19952;-54
2022/02/18 15:05:36;;;;;;;;;;;18.60;38.40;;;;;;8328996;28;19923;-51
2022/02/18 15:09:37;;;;;;;;;;;18.60;38.40;;;;;;8330616;28;20382;-50
2022/02/18 15:13:37;;;;;;;;;;;18.60;38.50;;;;;;8330131;28;19924;-50
2022/02/18 15:17:39;;;;;;;;;;;18.70;38.50;;;;;;8328386;28;19924;-53
2022/02/18 15:21:40;;;;;;;;;;;18.60;38.50;;;;;;8330346;28;19936;-51
2022/02/18 15:25:40;;;;;;;;;;;18.60;38.50;;;;;;8330057;28;19917;-52
2022/02/18 15:38:20;;;;;;;;;;;18.60;38.60;;;;;;8329563;28;19925;-54
2022/02/18 15:42:21;;;;;;;;;;;18.60;38.60;;;;;;8329814;28;19925;-53
2022/02/18 15:46:23;;;;;;;;;;;18.60;38.50;;;;;;8329063;28;20277;-51
2022/02/18 15:50:24;;;;;;;;;;;18.60;38.60;;;;;;8328959;28;19944;-52
2022/02/18 15:54:26;;;;;;;;;;;18.60;38.60;;;;;;8328680;28;19921;-52
2022/02/18 15:58:30;;;;;;;;;;;18.60;38.60;;;;;;8325610;28;20286;-54
2022/02/18 16:02:30;;;;;;;;;;;18.60;38.60;;;;;;8327097;28;20309;-52
2022/02/18 16:06:31;;;;;;;;;;;18.60;38.70;;;;;;8334108;28;19932;-51
2022/02/18 16:10:31;;;;;;;;;;;18.60;38.60;;;;;;8332424;28;20004;-52
2022/02/18 16:14:32;;;;;;;;;;;18.60;38.70;;;;;;8335907;28;19917;-49
2022/02/18 16:18:33;;;;;;;;;;;18.60;38.70;;;;;;8333253;28;19925;-49
2022/02/18 16:22:34;;;;;;;;;;;18.60;38.70;;;;;;8335352;28;20408;-50
2022/02/18 16:26:34;;;;;;;;;;;18.70;38.70;;;;;;8335600;28;20027;-52
2022/02/18 16:30:35;;;;;;;;;;;18.60;38.70;;;;;;8335837;28;19917;-52
2022/02/18 16:34:36;;;;;;;;;;;18.60;38.70;;;;;;8322988;28;21806;-54
2022/02/18 16:38:36;;;;;;;;;;;18.70;38.80;;;;;;8329803;28;19921;-53
2022/02/18 16:42:37;;;;;;;;;;;18.60;38.80;;;;;;8334287;28;19925;-53
2022/02/18 16:46:38;;;;;;;;;;;18.60;38.80;;;;;;8322832;28;19916;-53
2022/02/18 16:50:38;;;;;;;;;;;18.60;38.80;;;;;;8323173;28;19917;-52
2022/02/18 16:54:39;;;;;;;;;;;18.60;38.70;;;;;;8334283;28;19929;-53
2022/02/18 16:58:42;;;;;;;;;;;18.60;38.70;;;;;;8333127;28;19996;-51
2022/02/18 17:02:43;;;;;;;;;;;18.60;38.80;;;;;;8334406;28;19925;-53
2022/02/18 17:06:43;;;;;;;;;;;18.70;38.80;;;;;;8334348;28;20298;-53
2022/02/18 17:10:45;;;;;;;;;;;18.60;38.80;;;;;;8325283;28;19922;-49
2022/02/18 17:14:46;;;;;;;;;;;18.60;38.80;;;;;;8326966;28;19924;-50
2022/02/18 17:18:47;;;;;;;;;;;18.60;38.80;;;;;;8333896;28;19917;-54
2022/02/18 17:22:48;;;;;;;;;;;18.70;38.90;;;;;;8333421;28;20348;-52
2022/02/18 17:26:49;;;;;;;;;;;18.60;38.80;;;;;;8333909;28;19917;-54
2022/02/18 17:30:49;;;;;;;;;;;18.70;38.90;;;;;;8334130;28;19917;-53
2022/02/18 17:34:50;;;;;;;;;;;18.70;38.90;;;;;;8333157;28;19928;-53
2022/02/18 17:38:51;;;;;;;;;;;18.70;38.90;;;;;;8333669;28;19921;-55
2022/02/18 17:42:51;;;;;;;;;;;18.70;38.90;;;;;;8333292;28;19967;-55
2022/02/18 17:46:52;;;;;;;;;;;18.70;38.90;;;;;;8332878;28;19913;-53
2022/02/18 17:50:53;;;;;;;;;;;18.70;39.00;;;;;;8333700;28;20022;-51
2022/02/18 17:54:53;;;;;;;;;;;18.70;39.00;;;;;;8333104;28;19921;-52
2022/02/18 17:58:53;;;;;;;;;;;18.70;39.00;;;;;;8332488;28;19917;-54
2022/02/18 18:02:54;;;;;;;;;;;18.70;39.10;;;;;;8332660;28;19933;-54
2022/02/18 18:06:56;;;;;;;;;;;18.70;39.10;;;;;;8331550;28;19917;-50
2022/02/18 18:10:57;;;;;;;;;;;18.70;39.10;;;;;;8332174;28;19925;-54
2022/02/18 18:14:58;;;;;;;;;;;18.70;39.20;;;;;;8332303;28;19924;-50
2022/02/18 18:18:59;;;;;;;;;;;18.70;39.20;;;;;;8332308;28;19921;-55
2022/02/18 18:23:00;;;;;;;;;;;18.70;39.20;;;;;;8332185;28;19933;-52
2022/02/18 18:27:00;;;;;;;;;;;18.70;39.20;;;;;;8331669;28;19955;-51
2022/02/18 18:31:01;;;;;;;;;;;18.70;39.20;;;;;;8331751;28;20338;-52
2022/02/18 18:35:01;;;;;;;;;;;18.70;39.30;;;;;;8331491;28;20382;-49
2022/02/18 18:39:02;;;;;;;;;;;18.70;39.20;;;;;;8331605;28;19917;-53
2022/02/18 18:43:03;;;;;;;;;;;18.70;39.30;;;;;;8331552;28;19925;-53
2022/02/18 18:47:03;;;;;;;;;;;18.70;39.30;;;;;;8331164;28;19917;-49
2022/02/18 18:51:05;;;;;;;;;;;18.70;39.30;;;;;;8331268;28;19924;-51
2022/02/18 18:55:06;;;;;;;;;;;18.70;39.40;;;;;;8331214;28;20030;-50
2022/02/18 18:59:08;;;;;;;;;;;18.70;39.30;;;;;;8330551;28;19917;-53
2022/02/18 19:03:08;;;;;;;;;;;18.70;39.30;;;;;;8330791;28;19932;-53
2022/02/18 19:07:09;;;;;;;;;;;18.70;39.30;;;;;;8331050;28;19925;-53
2022/02/18 19:11:09;;;;;;;;;;;18.70;39.30;;;;;;8330238;28;20012;-54
2022/02/18 19:15:10;;;;;;;;;;;18.70;39.90;;;;;;8330748;28;19921;-55
2022/02/18 19:19:10;;;;;;;;;;;18.70;39.30;;;;;;8330475;28;20373;-55
2022/02/18 19:23:11;;;;;;;;;;;18.70;39.30;;;;;;8329994;28;19929;-53
2022/02/18 19:27:12;;;;;;;;;;;18.70;39.40;;;;;;8330806;28;19921;-53
2022/02/18 19:31:13;;;;;;;;;;;18.70;39.40;;;;;;8330341;28;19917;-55
2022/02/18 19:35:14;;;;;;;;;;;18.80;39.90;;;;;;8330092;28;20374;-55
2022/02/18 19:39:15;;;;;;;;;;;18.80;39.40;;;;;;8329324;28;20385;-55
2022/02/18 19:43:15;;;;;;;;;;;18.70;39.30;;;;;;8330041;28;19925;-54
2022/02/18 19:47:16;;;;;;;;;;;18.80;39.40;;;;;;8329942;28;19995;-56
2022/02/18 19:51:16;;;;;;;;;;;18.70;39.30;;;;;;8330042;28;19917;-53
2022/02/18 19:55:17;;;;;;;;;;;18.70;39.40;;;;;;8329552;28;19921;-49
2022/02/18 19:59:19;;;;;;;;;;;18.70;39.30;;;;;;8330203;28;20370;-55
2022/02/18 20:03:20;;;;;;;;;;;18.70;39.20;;;;;;8329725;28;19935;-55
2022/02/18 20:07:21;;;;;;;;;;;18.70;39.20;;;;;;8329713;28;20320;-52
2022/02/18 20:11:22;;;;;;;;;;;18.70;39.10;;;;;;8328930;28;19918;-51
2022/02/18 20:15:22;;;;;;;;;;;18.70;39.10;;;;;;8329653;28;19917;-54
2022/02/18 20:19:23;;;;;;;;;;;18.80;39.20;;;;;;8329177;28;19917;-52
2022/02/18 20:23:25;;;;;;;;;;;18.70;39.10;;;;;;8329285;28;19964;-56
2022/02/18 20:27:25;;;;;;;;;;;18.70;39.10;;;;;;8329807;28;19924;-53
2022/02/18 20:31:26;;;;;;;;;;;18.70;39.10;;;;;;8328856;28;19917;-54
2022/02/18 20:35:26;;;;;;;;;;;18.70;39.10;;;;;;8329357;28;19924;-55
2022/02/18 20:39:29;;;;;;;;;;;18.70;39.00;;;;;;8329124;28;20278;-54
2022/02/18 20:43:29;;;;;;;;;;;18.70;39.00;;;;;;8328607;28;19925;-49
2022/02/18 20:47:30;;;;;;;;;;;18.70;39.00;;;;;;8329374;28;19923;-53
2022/02/18 20:51:30;;;;;;;;;;;18.70;39.00;;;;;;8331870;28;20396;-53
2022/02/18 20:55:31;;;;;;;;;;;18.70;38.90;;;;;;8334565;28;19921;-52
2022/02/18 20:59:31;;;;;;;;;;;18.70;38.90;;;;;;8334736;28;19971;-52
2022/02/18 21:03:32;;;;;;;;;;;18.70;38.90;;;;;;8334550;28;20142;-53
2022/02/18 21:07:32;;;;;;;;;;;18.60;38.90;;;;;;8334414;28;20385;-51
2022/02/18 21:11:33;;;;;;;;;;;18.60;38.90;;;;;;8334699;28;19917;-53
2022/02/18 21:15:33;;;;;;;;;;;18.60;38.90;;;;;;8334286;28;19964;-53
2022/02/18 21:19:34;;;;;;;;;;;18.60;38.80;;;;;;8333781;28;20152;-53
2022/02/18 21:23:34;;;;;;;;;;;18.70;38.90;;;;;;8333998;28;19925;-53
2022/02/18 21:27:35;;;;;;;;;;;18.60;38.80;;;;;;8334415;28;20397;-52
2022/02/18 21:31:36;;;;;;;;;;;18.60;38.80;;;;;;8333250;28;19921;-52
2022/02/18 21:35:37;;;;;;;;;;;18.60;38.80;;;;;;8333731;28;19917;-54
2022/02/18 21:39:38;;;;;;;;;;;18.70;38.80;;;;;;8333537;28;19964;-50
2022/02/18 21:43:38;;;;;;;;;;;18.70;38.70;;;;;;8332906;28;19925;-54
2022/02/18 21:47:39;;;;;;;;;;;18.70;38.70;;;;;;8333557;28;19917;-52
2022/02/18 21:51:40;;;;;;;;;;;18.70;38.70;;;;;;8333158;28;19943;-54
2022/02/18 21:55:41;;;;;;;;;;;18.60;38.60;;;;;;8332595;28;19987;-53
2022/02/18 21:59:41;;;;;;;;;;;18.60;38.60;;;;;;8332786;28;20356;-54
2022/02/18 22:03:41;;;;;;;;;;;18.60;38.60;;;;;;8331913;28;20294;-54
2022/02/18 22:07:42;;;;;;;;;;;18.60;38.60;;;;;;8332547;28;19917;-54
2022/02/18 22:11:43;;;;;;;;;;;18.60;38.50;;;;;;8332380;28;19917;-51
2022/02/18 22:15:43;;;;;;;;;;;18.60;38.50;;;;;;8332469;28;19957;-54
2022/02/18 22:19:44;;;;;;;;;;;18.60;38.50;;;;;;8331910;28;19925;-51
2022/02/18 22:23:45;;;;;;;;;;;18.60;38.40;;;;;;8332057;28;20390;-51
2022/02/18 22:27:46;;;;;;;;;;;18.60;38.40;;;;;;8332365;28;20398;-54
2022/02/18 22:31:47;;;;;;;;;;;18.60;38.40;;;;;;8331507;28;19949;-51
2022/02/18 22:35:47;;;;;;;;;;;18.60;38.30;;;;;;8332006;28;20012;-52
2022/02/18 22:39:48;;;;;;;;;;;18.50;38.30;;;;;;8328875;28;19932;-51
2022/02/18 22:43:50;;;;;;;;;;;18.60;38.40;;;;;;8330392;28;19990;-54
2022/02/18 22:47:51;;;;;;;;;;;18.50;38.30;;;;;;8330791;28;19928;-56
2022/02/18 22:51:51;;;;;;;;;;;18.60;38.30;;;;;;8331297;28;19921;-54
2022/02/18 22:55:52;;;;;;;;;;;18.50;38.30;;;;;;8330973;28;19917;-55
2022/02/18 22:59:52;;;;;;;;;;;18.60;38.30;;;;;;8331196;28;19971;-51
2022/02/18 23:03:53;;;;;;;;;;;18.50;38.30;;;;;;8305299;28;19929;-54
2022/02/18 23:07:53;;;;;;;;;;;18.50;38.30;;;;;;8329927;28;19923;-55
2022/02/18 23:11:54;;;;;;;;;;;18.60;38.30;;;;;;8321363;28;19940;-53
2022/02/18 23:15:54;;;;;;;;;;;18.50;38.30;;;;;;8330591;28;19917;-54
2022/02/18 23:19:55;;;;;;;;;;;18.50;38.30;;;;;;8330267;28;19917;-52
2022/02/18 23:23:56;;;;;;;;;;;18.50;38.20;;;;;;8331007;28;19933;-53
2022/02/18 23:27:56;;;;;;;;;;;18.50;38.20;;;;;;8330650;28;20008;-52
2022/02/18 23:31:56;;;;;;;;;;;18.50;38.20;;;;;;8329749;28;20286;-55